Time;durP1;ratioP1;P1;durP2;ratioP2;P2;SDS_P1;SDS_P2;PMS_P1;PMS_P2;Temp;Humidity;BMP_temperature;BMP_pressure;BME280_temperature;BME280_humidity;BME280_pressure;Samples;Min_cycle;Max_cycle;Signal;HPM_P1;HPM_P2
2022/07/27 08:12:05;;;;;;;3.47;1.30;;;21.50;72.90;;;;;;5022333;28;20479;-77
2022/07/27 08:14:31;;;;;;;2.25;1.00;;;21.40;71.40;;;;;;5013669;28;20026;-75
2022/07/27 08:16:57;;;;;;;4.45;1.38;;;22.30;71.80;;;;;;5014289;28;20036;-75
2022/07/27 08:19:24;;;;;;;3.83;1.10;;;21.50;69.90;;;;;;5008999;28;20109;-76
2022/07/27 08:21:49;;;;;;;8.15;1.10;;;22.00;71.80;;;;;;5007058;28;20026;-75
2022/07/27 08:24:15;;;;;;;3.95;1.42;;;22.10;70.80;;;;;;5008343;28;20026;-75
2022/07/27 08:26:41;;;;;;;1.98;1.50;;;21.40;70.60;;;;;;5007987;28;20030;-75
2022/07/27 08:29:06;;;;;;;6.38;1.70;;;21.50;70.10;;;;;;5009727;28;20421;-73
2022/07/27 08:31:32;;;;;;;61.83;48.10;;;22.20;69.30;;;;;;5005710;28;20034;-75
2022/07/27 08:33:57;;;;;;;47.63;35.28;;;21.50;69.60;;;;;;5006957;28;20027;-74
2022/07/27 08:36:23;;;;;;;17.20;11.15;;;21.70;69.60;;;;;;5008107;28;20030;-75
2022/07/27 08:38:48;;;;;;;9.85;6.65;;;22.40;69.20;;;;;;5009641;28;20025;-74
2022/07/27 08:41:14;;;;;;;6.80;3.95;;;21.60;68.20;;;;;;5018935;28;20034;-73
2022/07/27 14:10:30;;;;;;;4.63;2.40;;;23.00;54.40;;;;;;5133910;27;20393;-72
2022/07/27 14:12:06;;;;;;;7.00;2.00;;;22.40;55.70;;;;;;5106322;28;20028;-72
2022/07/27 14:14:31;;;;;;;3.10;1.92;;;22.30;55.90;;;;;;5109453;28;20023;-72
2022/07/27 14:16:57;;;;;;;3.75;2.45;;;22.40;55.90;;;;;;5095465;28;20111;-73
2022/07/27 14:19:22;;;;;;;5.63;3.05;;;22.30;54.90;;;;;;5092574;28;20020;-75
2022/07/27 14:21:48;;;;;;;4.50;2.30;;;22.30;55.10;;;;;;5095441;28;20047;-75
2022/07/27 14:24:13;;;;;;;6.75;2.40;;;22.50;54.80;;;;;;5094684;28;20097;-75
2022/07/27 14:26:39;;;;;;;7.07;2.95;;;22.40;54.40;;;;;;5094516;28;20036;-75
2022/07/27 14:29:04;;;;;;;2.97;2.28;;;22.40;55.10;;;;;;5096754;28;20028;-75
2022/07/27 14:32:14;;;;;;;2.97;2.45;;;22.40;55.10;;;;;;5103438;28;20119;-90
2022/07/27 14:34:39;;;;;;;3.67;1.70;;;22.50;55.20;;;;;;5096220;28;20082;-75
2022/07/27 14:37:05;;;;;;;3.72;2.00;;;22.70;54.40;;;;;;5106503;28;20019;-74
2022/07/27 14:39:30;;;;;;;3.17;1.95;;;22.50;55.30;;;;;;5095071;28;20167;-74
2022/07/27 14:41:56;;;;;;;3.75;1.67;;;22.50;54.70;;;;;;5103230;28;20029;-75
2022/07/27 14:50:45;;;;;;;2.38;1.52;;;22.30;54.30;;;;;;5286575;22;20049;-74
2022/07/27 14:53:11;;;;;;;2.97;1.52;;;22.30;54.40;;;;;;5103034;28;20026;-75
2022/07/27 14:55:41;;;;;;;4.72;1.70;;;22.30;54.70;;;;;;5072609;28;20055;-75
2022/07/27 14:58:07;;;;;;;4.68;1.55;;;22.20;54.40;;;;;;5071884;28;20032;-75
2022/07/27 15:00:33;;;;;;;3.40;1.85;;;22.10;54.60;;;;;;5086991;28;20107;-74
2022/07/27 15:02:58;;;;;;;4.53;1.40;;;22.20;54.30;;;;;;5087529;28;20063;-75
2022/07/27 15:05:24;;;;;;;1.83;1.27;;;22.20;53.80;;;;;;5087199;28;20107;-75
2022/07/27 15:37:45;;;;;;;3.30;1.50;;;22.70;53.80;;;;;;5321593;22;20066;-75
2022/07/27 15:42:55;;;;;;;4.18;1.45;;;23.00;53.60;;;;;;5009711;28;20036;-75
2022/07/27 15:45:21;;;;;;;2.08;1.58;;;23.50;52.90;;;;;;5035578;28;20033;-76
2022/07/27 15:47:47;;;;;;;3.58;1.73;;;23.30;51.70;;;;;;5033197;28;20018;-75
2022/07/27 15:50:12;;;;;;;4.28;1.30;;;23.70;50.60;;;;;;4988004;28;20017;-76
2022/07/27 15:52:38;;;;;;;2.65;1.58;;;23.70;50.80;;;;;;5032817;28;20342;-76
2022/07/27 15:55:04;;;;;;;2.00;1.50;;;23.40;50.50;;;;;;5015291;28;20076;-76
2022/07/27 15:57:29;;;;;;;2.05;1.48;;;23.40;51.00;;;;;;5033097;28;20032;-75
2022/07/27 15:59:55;;;;;;;3.25;0.98;;;23.40;51.20;;;;;;5032486;28;20721;-75
2022/07/27 16:02:55;;;;;;;4.45;1.38;;;24.30;51.50;;;;;;5010598;28;20538;-85
2022/07/27 16:05:42;;;;;;;10.02;2.58;;;23.80;52.30;;;;;;5000872;28;20513;-85
2022/07/27 16:08:30;;;;;;;19.50;4.32;;;23.40;55.30;;;;;;5031116;28;20446;-83
2022/07/27 16:16:23;;;;;;;38.00;6.75;;;23.70;91.90;;;;;;4932811;22;20049;-81
